sensor_id;sensor_type;location;lat;lon;timestamp;temperature;humidity
40868;DHT22;26586;50.708;22.412;2023-08-01T00:00:08;24.10;55.00
40868;DHT22;26586;50.708;22.412;2023-08-01T00:02:34;24.10;55.20
40868;DHT22;26586;50.708;22.412;2023-08-01T00:05:01;24.00;55.20
40868;DHT22;26586;50.708;22.412;2023-08-01T00:07:28;24.00;55.10
40868;DHT22;26586;50.708;22.412;2023-08-01T00:09:54;24.00;55.00
40868;DHT22;26586;50.708;22.412;2023-08-01T00:12:20;24.00;54.90
40868;DHT22;26586;50.708;22.412;2023-08-01T00:14:47;24.00;54.90
40868;DHT22;26586;50.708;22.412;2023-08-01T00:17:13;24.00;55.00
40868;DHT22;26586;50.708;22.412;2023-08-01T00:19:40;24.00;55.00
40868;DHT22;26586;50.708;22.412;2023-08-01T00:22:06;24.00;55.10
40868;DHT22;26586;50.708;22.412;2023-08-01T00:24:32;23.90;55.00
40868;DHT22;26586;50.708;22.412;2023-08-01T00:26:58;23.90;55.00
40868;DHT22;26586;50.708;22.412;2023-08-01T00:29:25;23.90;55.10
40868;DHT22;26586;50.708;22.412;2023-08-01T00:31:51;23.90;55.30
40868;DHT22;26586;50.708;22.412;2023-08-01T00:34:17;23.90;55.30
40868;DHT22;26586;50.708;22.412;2023-08-01T00:36:43;23.90;55.10
40868;DHT22;26586;50.708;22.412;2023-08-01T00:39:09;23.80;55.00
40868;DHT22;26586;50.708;22.412;2023-08-01T00:41:35;23.90;55.20
40868;DHT22;26586;50.708;22.412;2023-08-01T00:44:02;23.80;54.90
40868;DHT22;26586;50.708;22.412;2023-08-01T00:46:28;23.80;54.90
40868;DHT22;26586;50.708;22.412;2023-08-01T00:48:55;23.80;55.10
40868;DHT22;26586;50.708;22.412;2023-08-01T00:51:26;23.80;55.40
40868;DHT22;26586;50.708;22.412;2023-08-01T00:53:53;23.70;55.70
40868;DHT22;26586;50.708;22.412;2023-08-01T00:56:20;23.70;56.00
40868;DHT22;26586;50.708;22.412;2023-08-01T00:58:46;23.70;56.00
40868;DHT22;26586;50.708;22.412;2023-08-01T01:01:12;23.70;57.00
40868;DHT22;26586;50.708;22.412;2023-08-01T01:03:39;23.70;56.10
40868;DHT22;26586;50.708;22.412;2023-08-01T01:06:29;23.70;56.10
40868;DHT22;26586;50.708;22.412;2023-08-01T01:08:57;23.70;56.30
40868;DHT22;26586;50.708;22.412;2023-08-01T01:11:23;23.70;56.00
40868;DHT22;26586;50.708;22.412;2023-08-01T01:13:50;23.70;56.20
40868;DHT22;26586;50.708;22.412;2023-08-01T01:16:19;23.60;56.70
40868;DHT22;26586;50.708;22.412;2023-08-01T01:18:46;23.60;56.70
40868;DHT22;26586;50.708;22.412;2023-08-01T01:21:12;23.60;57.00
40868;DHT22;26586;50.708;22.412;2023-08-01T01:23:38;23.60;56.90
40868;DHT22;26586;50.708;22.412;2023-08-01T01:26:06;23.60;56.40
40868;DHT22;26586;50.708;22.412;2023-08-01T01:28:36;23.60;56.50
40868;DHT22;26586;50.708;22.412;2023-08-01T01:31:03;23.60;56.20
40868;DHT22;26586;50.708;22.412;2023-08-01T01:33:29;23.60;56.60
40868;DHT22;26586;50.708;22.412;2023-08-01T01:35:55;23.50;56.80
40868;DHT22;26586;50.708;22.412;2023-08-01T01:38:22;23.50;56.50
40868;DHT22;26586;50.708;22.412;2023-08-01T01:40:48;23.50;56.50
40868;DHT22;26586;50.708;22.412;2023-08-01T01:43:14;23.50;56.10
40868;DHT22;26586;50.708;22.412;2023-08-01T01:45:40;23.50;56.20
40868;DHT22;26586;50.708;22.412;2023-08-01T01:48:07;23.50;55.90
40868;DHT22;26586;50.708;22.412;2023-08-01T01:50:33;23.50;55.70
40868;DHT22;26586;50.708;22.412;2023-08-01T01:53:00;23.50;55.60
40868;DHT22;26586;50.708;22.412;2023-08-01T01:55:26;23.40;55.60
40868;DHT22;26586;50.708;22.412;2023-08-01T01:57:52;23.40;55.60
40868;DHT22;26586;50.708;22.412;2023-08-01T02:00:18;23.40;55.80
40868;DHT22;26586;50.708;22.412;2023-08-01T02:02:45;23.40;55.80
40868;DHT22;26586;50.708;22.412;2023-08-01T02:05:11;23.40;55.70
40868;DHT22;26586;50.708;22.412;2023-08-01T02:07:37;23.40;55.50
40868;DHT22;26586;50.708;22.412;2023-08-01T02:10:03;23.40;55.40
40868;DHT22;26586;50.708;22.412;2023-08-01T02:12:30;23.40;55.40
40868;DHT22;26586;50.708;22.412;2023-08-01T02:14:58;23.30;55.30
40868;DHT22;26586;50.708;22.412;2023-08-01T02:17:24;23.30;55.40
40868;DHT22;26586;50.708;22.412;2023-08-01T02:19:51;23.30;55.40
40868;DHT22;26586;50.708;22.412;2023-08-01T02:22:17;23.30;55.50
40868;DHT22;26586;50.708;22.412;2023-08-01T02:24:43;23.30;55.70
40868;DHT22;26586;50.708;22.412;2023-08-01T02:27:09;23.30;55.80
40868;DHT22;26586;50.708;22.412;2023-08-01T02:29:35;23.20;55.80
40868;DHT22;26586;50.708;22.412;2023-08-01T02:32:02;23.20;56.10
40868;DHT22;26586;50.708;22.412;2023-08-01T02:34:28;23.30;55.90
40868;DHT22;26586;50.708;22.412;2023-08-01T02:36:54;23.20;55.70
40868;DHT22;26586;50.708;22.412;2023-08-01T02:39:20;23.20;55.60
40868;DHT22;26586;50.708;22.412;2023-08-01T02:41:47;23.20;55.50
40868;DHT22;26586;50.708;22.412;2023-08-01T02:44:13;23.20;55.50
40868;DHT22;26586;50.708;22.412;2023-08-01T02:46:40;23.20;55.60
40868;DHT22;26586;50.708;22.412;2023-08-01T02:49:06;23.10;55.60
40868;DHT22;26586;50.708;22.412;2023-08-01T02:51:33;23.10;55.60
40868;DHT22;26586;50.708;22.412;2023-08-01T02:53:59;23.20;55.70
40868;DHT22;26586;50.708;22.412;2023-08-01T02:56:25;23.10;55.80
40868;DHT22;26586;50.708;22.412;2023-08-01T02:58:53;23.10;55.90
40868;DHT22;26586;50.708;22.412;2023-08-01T03:01:21;23.10;56.00
40868;DHT22;26586;50.708;22.412;2023-08-01T03:03:47;23.10;55.90
40868;DHT22;26586;50.708;22.412;2023-08-01T03:06:14;23.10;55.90
40868;DHT22;26586;50.708;22.412;2023-08-01T03:08:41;23.10;55.90
40868;DHT22;26586;50.708;22.412;2023-08-01T03:11:07;23.10;55.90
40868;DHT22;26586;50.708;22.412;2023-08-01T03:13:33;23.00;56.00
40868;DHT22;26586;50.708;22.412;2023-08-01T03:15:59;23.10;56.10
40868;DHT22;26586;50.708;22.412;2023-08-01T03:18:25;23.00;56.10
40868;DHT22;26586;50.708;22.412;2023-08-01T03:20:52;23.00;56.30
40868;DHT22;26586;50.708;22.412;2023-08-01T03:23:18;23.00;56.20
40868;DHT22;26586;50.708;22.412;2023-08-01T03:25:44;23.00;56.20
40868;DHT22;26586;50.708;22.412;2023-08-01T03:28:11;23.00;56.10
40868;DHT22;26586;50.708;22.412;2023-08-01T03:30:37;23.00;56.10
40868;DHT22;26586;50.708;22.412;2023-08-01T03:33:03;22.90;56.10
40868;DHT22;26586;50.708;22.412;2023-08-01T03:35:30;23.00;56.30
40868;DHT22;26586;50.708;22.412;2023-08-01T03:37:56;23.00;56.30
40868;DHT22;26586;50.708;22.412;2023-08-01T03:40:23;22.90;56.20
40868;DHT22;26586;50.708;22.412;2023-08-01T03:42:49;22.90;57.10
40868;DHT22;26586;50.708;22.412;2023-08-01T03:45:15;22.90;56.40
40868;DHT22;26586;50.708;22.412;2023-08-01T03:47:41;22.90;56.40
40868;DHT22;26586;50.708;22.412;2023-08-01T03:50:08;22.90;56.30
40868;DHT22;26586;50.708;22.412;2023-08-01T03:52:34;22.90;56.20
40868;DHT22;26586;50.708;22.412;2023-08-01T03:55:00;22.90;56.20
40868;DHT22;26586;50.708;22.412;2023-08-01T03:57:29;22.90;56.20
40868;DHT22;26586;50.708;22.412;2023-08-01T03:59:56;22.90;56.30
40868;DHT22;26586;50.708;22.412;2023-08-01T04:02:22;22.80;56.20
40868;DHT22;26586;50.708;22.412;2023-08-01T04:04:48;22.80;56.20
40868;DHT22;26586;50.708;22.412;2023-08-01T04:07:14;22.80;56.20
40868;DHT22;26586;50.708;22.412;2023-08-01T04:09:40;22.80;56.20
40868;DHT22;26586;50.708;22.412;2023-08-01T04:12:07;22.70;56.20
40868;DHT22;26586;50.708;22.412;2023-08-01T04:14:34;22.80;57.00
40868;DHT22;26586;50.708;22.412;2023-08-01T04:17:00;22.70;57.10
40868;DHT22;26586;50.708;22.412;2023-08-01T04:19:26;22.70;56.60
40868;DHT22;26586;50.708;22.412;2023-08-01T04:21:52;22.70;57.00
40868;DHT22;26586;50.708;22.412;2023-08-01T04:24:19;22.70;57.00
40868;DHT22;26586;50.708;22.412;2023-08-01T04:26:45;22.70;57.30
40868;DHT22;26586;50.708;22.412;2023-08-01T04:29:11;22.70;57.40
40868;DHT22;26586;50.708;22.412;2023-08-01T04:31:41;22.70;57.40
40868;DHT22;26586;50.708;22.412;2023-08-01T04:34:07;22.70;57.60
40868;DHT22;26586;50.708;22.412;2023-08-01T04:36:33;22.70;57.70
40868;DHT22;26586;50.708;22.412;2023-08-01T04:38:59;22.70;57.70
40868;DHT22;26586;50.708;22.412;2023-08-01T04:41:25;22.70;58.20
40868;DHT22;26586;50.708;22.412;2023-08-01T04:43:52;22.70;58.70
40868;DHT22;26586;50.708;22.412;2023-08-01T04:46:18;22.70;58.70
40868;DHT22;26586;50.708;22.412;2023-08-01T04:48:45;22.70;58.50
40868;DHT22;26586;50.708;22.412;2023-08-01T04:51:11;22.70;58.70
40868;DHT22;26586;50.708;22.412;2023-08-01T04:53:37;22.70;58.80
40868;DHT22;26586;50.708;22.412;2023-08-01T04:56:03;22.70;58.90
40868;DHT22;26586;50.708;22.412;2023-08-01T04:58:29;22.70;59.80
40868;DHT22;26586;50.708;22.412;2023-08-01T05:00:56;22.80;59.50
40868;DHT22;26586;50.708;22.412;2023-08-01T05:03:22;22.80;59.50
40868;DHT22;26586;50.708;22.412;2023-08-01T05:05:48;22.80;59.60
40868;DHT22;26586;50.708;22.412;2023-08-01T05:08:15;22.80;59.50
40868;DHT22;26586;50.708;22.412;2023-08-01T05:10:41;22.90;59.40
40868;DHT22;26586;50.708;22.412;2023-08-01T05:13:07;22.90;59.60
40868;DHT22;26586;50.708;22.412;2023-08-01T05:15:33;22.90;59.30
40868;DHT22;26586;50.708;22.412;2023-08-01T05:17:59;23.00;59.20
40868;DHT22;26586;50.708;22.412;2023-08-01T05:20:25;23.00;59.80
40868;DHT22;26586;50.708;22.412;2023-08-01T05:22:59;23.00;59.50
40868;DHT22;26586;50.708;22.412;2023-08-01T05:25:25;23.10;59.00
40868;DHT22;26586;50.708;22.412;2023-08-01T05:27:51;23.10;58.80
40868;DHT22;26586;50.708;22.412;2023-08-01T05:30:18;23.20;58.90
40868;DHT22;26586;50.708;22.412;2023-08-01T05:32:44;23.20;58.50
40868;DHT22;26586;50.708;22.412;2023-08-01T05:35:11;23.30;58.40
40868;DHT22;26586;50.708;22.412;2023-08-01T05:37:37;23.30;59.00
40868;DHT22;26586;50.708;22.412;2023-08-01T05:40:04;23.30;58.30
40868;DHT22;26586;50.708;22.412;2023-08-01T05:42:31;23.40;58.30
40868;DHT22;26586;50.708;22.412;2023-08-01T05:44:57;23.40;58.20
40868;DHT22;26586;50.708;22.412;2023-08-01T05:47:24;23.40;58.80
40868;DHT22;26586;50.708;22.412;2023-08-01T05:49:50;23.50;58.20
40868;DHT22;26586;50.708;22.412;2023-08-01T05:52:16;23.60;58.20
40868;DHT22;26586;50.708;22.412;2023-08-01T05:54:42;23.60;58.10
40868;DHT22;26586;50.708;22.412;2023-08-01T05:57:08;23.70;58.10
40868;DHT22;26586;50.708;22.412;2023-08-01T05:59:34;23.70;58.10
40868;DHT22;26586;50.708;22.412;2023-08-01T06:02:01;23.80;58.10
40868;DHT22;26586;50.708;22.412;2023-08-01T06:04:28;23.90;58.00
40868;DHT22;26586;50.708;22.412;2023-08-01T06:06:54;23.90;58.00
40868;DHT22;26586;50.708;22.412;2023-08-01T06:09:21;24.00;58.00
40868;DHT22;26586;50.708;22.412;2023-08-01T06:11:48;24.00;58.00
40868;DHT22;26586;50.708;22.412;2023-08-01T06:14:16;24.10;58.00
40868;DHT22;26586;50.708;22.412;2023-08-01T06:16:42;24.20;57.90
40868;DHT22;26586;50.708;22.412;2023-08-01T06:19:08;24.20;57.80
40868;DHT22;26586;50.708;22.412;2023-08-01T06:21:35;24.30;57.80
40868;DHT22;26586;50.708;22.412;2023-08-01T06:24:01;24.30;57.70
40868;DHT22;26586;50.708;22.412;2023-08-01T06:26:27;24.40;57.60
40868;DHT22;26586;50.708;22.412;2023-08-01T06:28:53;24.40;57.50
40868;DHT22;26586;50.708;22.412;2023-08-01T06:31:21;24.50;57.60
40868;DHT22;26586;50.708;22.412;2023-08-01T06:33:47;24.50;57.40
40868;DHT22;26586;50.708;22.412;2023-08-01T06:36:13;24.60;57.40
40868;DHT22;26586;50.708;22.412;2023-08-01T06:38:39;24.60;57.40
40868;DHT22;26586;50.708;22.412;2023-08-01T06:41:06;24.60;57.40
40868;DHT22;26586;50.708;22.412;2023-08-01T06:43:32;24.70;57.40
40868;DHT22;26586;50.708;22.412;2023-08-01T06:45:58;24.80;57.40
40868;DHT22;26586;50.708;22.412;2023-08-01T06:48:24;24.80;57.40
40868;DHT22;26586;50.708;22.412;2023-08-01T06:50:50;24.80;57.30
40868;DHT22;26586;50.708;22.412;2023-08-01T06:53:16;24.80;57.30
40868;DHT22;26586;50.708;22.412;2023-08-01T06:55:43;24.90;57.50
40868;DHT22;26586;50.708;22.412;2023-08-01T06:58:09;24.90;57.20
40868;DHT22;26586;50.708;22.412;2023-08-01T07:00:35;25.00;57.00
40868;DHT22;26586;50.708;22.412;2023-08-01T07:03:02;25.00;56.90
40868;DHT22;26586;50.708;22.412;2023-08-01T07:05:29;25.00;56.90
40868;DHT22;26586;50.708;22.412;2023-08-01T07:07:55;25.00;57.00
40868;DHT22;26586;50.708;22.412;2023-08-01T07:10:24;25.10;56.90
40868;DHT22;26586;50.708;22.412;2023-08-01T07:12:50;25.10;56.90
40868;DHT22;26586;50.708;22.412;2023-08-01T07:15:17;25.20;57.00
40868;DHT22;26586;50.708;22.412;2023-08-01T07:17:43;25.20;57.10
40868;DHT22;26586;50.708;22.412;2023-08-01T07:20:10;25.30;57.10
40868;DHT22;26586;50.708;22.412;2023-08-01T07:22:36;25.30;57.20
40868;DHT22;26586;50.708;22.412;2023-08-01T07:25:03;25.40;56.50
40868;DHT22;26586;50.708;22.412;2023-08-01T07:27:29;25.40;57.00
40868;DHT22;26586;50.708;22.412;2023-08-01T07:29:55;25.40;56.90
40868;DHT22;26586;50.708;22.412;2023-08-01T07:32:21;25.50;56.60
40868;DHT22;26586;50.708;22.412;2023-08-01T07:34:48;25.50;56.80
40868;DHT22;26586;50.708;22.412;2023-08-01T07:37:14;25.60;56.80
40868;DHT22;26586;50.708;22.412;2023-08-01T07:39:40;25.60;57.00
40868;DHT22;26586;50.708;22.412;2023-08-01T07:42:09;25.70;57.00
40868;DHT22;26586;50.708;22.412;2023-08-01T07:44:41;25.80;57.20
40868;DHT22;26586;50.708;22.412;2023-08-01T07:47:07;25.80;57.20
40868;DHT22;26586;50.708;22.412;2023-08-01T07:49:34;25.90;57.50
40868;DHT22;26586;50.708;22.412;2023-08-01T07:52:00;25.90;57.50
40868;DHT22;26586;50.708;22.412;2023-08-01T07:54:26;26.00;57.30
40868;DHT22;26586;50.708;22.412;2023-08-01T07:56:53;26.10;57.70
40868;DHT22;26586;50.708;22.412;2023-08-01T07:59:20;26.10;57.70
40868;DHT22;26586;50.708;22.412;2023-08-01T08:01:49;26.20;57.70
40868;DHT22;26586;50.708;22.412;2023-08-01T08:04:18;26.20;57.80
40868;DHT22;26586;50.708;22.412;2023-08-01T08:06:45;26.30;57.70
40868;DHT22;26586;50.708;22.412;2023-08-01T08:09:12;26.30;57.80
40868;DHT22;26586;50.708;22.412;2023-08-01T08:11:39;26.40;57.80
40868;DHT22;26586;50.708;22.412;2023-08-01T08:14:06;26.40;57.80
40868;DHT22;26586;50.708;22.412;2023-08-01T08:16:33;26.40;57.70
40868;DHT22;26586;50.708;22.412;2023-08-01T08:19:03;26.50;57.90
40868;DHT22;26586;50.708;22.412;2023-08-01T08:21:31;26.50;58.00
40868;DHT22;26586;50.708;22.412;2023-08-01T08:24:02;26.60;57.80
40868;DHT22;26586;50.708;22.412;2023-08-01T08:26:28;26.60;57.80
40868;DHT22;26586;50.708;22.412;2023-08-01T08:28:55;26.60;58.00
40868;DHT22;26586;50.708;22.412;2023-08-01T08:31:22;26.70;58.00
40868;DHT22;26586;50.708;22.412;2023-08-01T08:33:52;26.70;58.00
40868;DHT22;26586;50.708;22.412;2023-08-01T08:36:18;26.80;58.20
40868;DHT22;26586;50.708;22.412;2023-08-01T08:38:47;26.80;58.30
40868;DHT22;26586;50.708;22.412;2023-08-01T08:41:25;26.80;58.20
40868;DHT22;26586;50.708;22.412;2023-08-01T08:43:56;26.90;58.20
40868;DHT22;26586;50.708;22.412;2023-08-01T08:46:28;26.90;58.10
40868;DHT22;26586;50.708;22.412;2023-08-01T08:48:57;26.90;58.10
40868;DHT22;26586;50.708;22.412;2023-08-01T08:51:26;27.00;58.50
40868;DHT22;26586;50.708;22.412;2023-08-01T08:53:53;27.00;58.00
40868;DHT22;26586;50.708;22.412;2023-08-01T08:56:20;27.00;57.30
40868;DHT22;26586;50.708;22.412;2023-08-01T08:58:47;27.10;57.90
40868;DHT22;26586;50.708;22.412;2023-08-01T09:01:14;27.10;57.90
40868;DHT22;26586;50.708;22.412;2023-08-01T09:03:40;27.20;58.00
40868;DHT22;26586;50.708;22.412;2023-08-01T09:06:17;27.20;57.70
40868;DHT22;26586;50.708;22.412;2023-08-01T09:08:51;27.20;57.70
40868;DHT22;26586;50.708;22.412;2023-08-01T09:11:20;27.30;57.60
40868;DHT22;26586;50.708;22.412;2023-08-01T09:13:50;27.30;57.70
40868;DHT22;26586;50.708;22.412;2023-08-01T09:16:16;27.30;57.70
40868;DHT22;26586;50.708;22.412;2023-08-01T09:18:50;27.30;57.60
40868;DHT22;26586;50.708;22.412;2023-08-01T09:21:22;27.40;56.90
40868;DHT22;26586;50.708;22.412;2023-08-01T09:23:49;27.40;57.60
40868;DHT22;26586;50.708;22.412;2023-08-01T09:26:16;27.40;57.10
40868;DHT22;26586;50.708;22.412;2023-08-01T09:28:43;27.50;56.40
40868;DHT22;26586;50.708;22.412;2023-08-01T09:31:11;27.50;56.30
40868;DHT22;26586;50.708;22.412;2023-08-01T09:33:41;27.50;56.80
40868;DHT22;26586;50.708;22.412;2023-08-01T09:36:11;27.50;56.40
40868;DHT22;26586;50.708;22.412;2023-08-01T09:38:46;27.50;56.80
40868;DHT22;26586;50.708;22.412;2023-08-01T09:41:20;27.60;56.80
40868;DHT22;26586;50.708;22.412;2023-08-01T09:43:47;27.60;56.00
40868;DHT22;26586;50.708;22.412;2023-08-01T09:46:14;27.60;56.00
40868;DHT22;26586;50.708;22.412;2023-08-01T09:48:44;27.60;54.70
40868;DHT22;26586;50.708;22.412;2023-08-01T09:51:15;27.60;55.20
40868;DHT22;26586;50.708;22.412;2023-08-01T09:53:55;27.60;55.60
40868;DHT22;26586;50.708;22.412;2023-08-01T09:56:24;27.60;55.40
40868;DHT22;26586;50.708;22.412;2023-08-01T09:58:53;27.60;55.90
40868;DHT22;26586;50.708;22.412;2023-08-01T10:01:24;27.70;55.90
40868;DHT22;26586;50.708;22.412;2023-08-01T10:03:53;27.60;56.00
40868;DHT22;26586;50.708;22.412;2023-08-01T10:06:24;27.70;55.60
40868;DHT22;26586;50.708;22.412;2023-08-01T10:09:05;27.70;56.00
40868;DHT22;26586;50.708;22.412;2023-08-01T10:11:34;27.70;56.30
40868;DHT22;26586;50.708;22.412;2023-08-01T10:14:06;27.70;56.20
40868;DHT22;26586;50.708;22.412;2023-08-01T10:16:34;27.70;56.00
40868;DHT22;26586;50.708;22.412;2023-08-01T10:19:06;27.70;55.60
40868;DHT22;26586;50.708;22.412;2023-08-01T10:21:36;27.70;55.00
40868;DHT22;26586;50.708;22.412;2023-08-01T10:24:05;27.70;55.30
40868;DHT22;26586;50.708;22.412;2023-08-01T10:26:32;27.70;55.20
40868;DHT22;26586;50.708;22.412;2023-08-01T10:28:58;27.70;55.20
40868;DHT22;26586;50.708;22.412;2023-08-01T10:31:26;27.70;56.20
40868;DHT22;26586;50.708;22.412;2023-08-01T10:34:04;27.70;55.70
40868;DHT22;26586;50.708;22.412;2023-08-01T10:36:34;27.70;55.50
40868;DHT22;26586;50.708;22.412;2023-08-01T10:39:03;27.70;55.90
40868;DHT22;26586;50.708;22.412;2023-08-01T10:41:33;27.70;55.30
40868;DHT22;26586;50.708;22.412;2023-08-01T10:44:15;27.70;55.40
40868;DHT22;26586;50.708;22.412;2023-08-01T10:46:51;27.70;55.60
40868;DHT22;26586;50.708;22.412;2023-08-01T10:49:37;27.70;55.80
40868;DHT22;26586;50.708;22.412;2023-08-01T10:54:41;27.70;56.00
40868;DHT22;26586;50.708;22.412;2023-08-01T10:57:08;27.70;55.90
40868;DHT22;26586;50.708;22.412;2023-08-01T10:59:35;27.70;55.70
40868;DHT22;26586;50.708;22.412;2023-08-01T11:02:04;27.80;55.80
40868;DHT22;26586;50.708;22.412;2023-08-01T11:04:31;27.80;56.10
40868;DHT22;26586;50.708;22.412;2023-08-01T11:07:00;27.80;56.20
40868;DHT22;26586;50.708;22.412;2023-08-01T11:09:27;27.80;56.40
40868;DHT22;26586;50.708;22.412;2023-08-01T11:11:56;27.80;57.00
40868;DHT22;26586;50.708;22.412;2023-08-01T11:14:24;27.70;56.50
40868;DHT22;26586;50.708;22.412;2023-08-01T11:16:51;27.80;56.50
40868;DHT22;26586;50.708;22.412;2023-08-01T11:19:23;27.80;56.60
40868;DHT22;26586;50.708;22.412;2023-08-01T11:21:50;27.80;56.50
40868;DHT22;26586;50.708;22.412;2023-08-01T11:24:16;27.80;56.50
40868;DHT22;26586;50.708;22.412;2023-08-01T11:26:43;27.80;56.20
40868;DHT22;26586;50.708;22.412;2023-08-01T11:29:13;27.80;55.70
40868;DHT22;26586;50.708;22.412;2023-08-01T11:31:39;27.80;55.60
40868;DHT22;26586;50.708;22.412;2023-08-01T11:34:08;27.70;55.90
40868;DHT22;26586;50.708;22.412;2023-08-01T11:36:36;27.80;55.70
40868;DHT22;26586;50.708;22.412;2023-08-01T11:39:03;27.80;55.70
40868;DHT22;26586;50.708;22.412;2023-08-01T11:41:30;27.80;55.70
40868;DHT22;26586;50.708;22.412;2023-08-01T11:44:02;27.80;56.00
40868;DHT22;26586;50.708;22.412;2023-08-01T11:46:32;27.80;56.10
40868;DHT22;26586;50.708;22.412;2023-08-01T11:49:00;27.80;55.70
40868;DHT22;26586;50.708;22.412;2023-08-01T11:51:29;27.80;55.90
40868;DHT22;26586;50.708;22.412;2023-08-01T11:54:03;27.80;55.50
40868;DHT22;26586;50.708;22.412;2023-08-01T11:56:35;27.80;56.00
40868;DHT22;26586;50.708;22.412;2023-08-01T11:59:11;27.70;55.40
40868;DHT22;26586;50.708;22.412;2023-08-01T12:01:42;27.70;55.10
40868;DHT22;26586;50.708;22.412;2023-08-01T12:04:09;27.70;55.40
40868;DHT22;26586;50.708;22.412;2023-08-01T12:06:35;27.70;54.50
40868;DHT22;26586;50.708;22.412;2023-08-01T12:09:12;27.70;53.80
40868;DHT22;26586;50.708;22.412;2023-08-01T12:11:40;27.80;54.00
40868;DHT22;26586;50.708;22.412;2023-08-01T12:14:14;27.70;54.50
40868;DHT22;26586;50.708;22.412;2023-08-01T12:16:42;27.70;54.70
40868;DHT22;26586;50.708;22.412;2023-08-01T12:19:22;27.70;54.70
40868;DHT22;26586;50.708;22.412;2023-08-01T12:21:49;27.70;52.90
40868;DHT22;26586;50.708;22.412;2023-08-01T12:24:19;27.70;51.70
40868;DHT22;26586;50.708;22.412;2023-08-01T12:26:47;27.70;53.50
40868;DHT22;26586;50.708;22.412;2023-08-01T12:29:14;27.70;53.20
40868;DHT22;26586;50.708;22.412;2023-08-01T12:31:41;27.70;53.70
40868;DHT22;26586;50.708;22.412;2023-08-01T12:34:14;27.70;53.50
40868;DHT22;26586;50.708;22.412;2023-08-01T12:36:40;27.70;54.20
40868;DHT22;26586;50.708;22.412;2023-08-01T12:39:07;27.70;53.50
40868;DHT22;26586;50.708;22.412;2023-08-01T12:41:37;27.70;53.80
40868;DHT22;26586;50.708;22.412;2023-08-01T12:44:04;27.70;54.20
40868;DHT22;26586;50.708;22.412;2023-08-01T12:46:31;27.70;54.10
40868;DHT22;26586;50.708;22.412;2023-08-01T12:48:57;27.70;54.40
40868;DHT22;26586;50.708;22.412;2023-08-01T12:51:23;27.70;54.50
40868;DHT22;26586;50.708;22.412;2023-08-01T12:53:50;27.60;54.00
40868;DHT22;26586;50.708;22.412;2023-08-01T12:56:16;27.70;53.80
40868;DHT22;26586;50.708;22.412;2023-08-01T12:58:42;27.70;54.00
40868;DHT22;26586;50.708;22.412;2023-08-01T13:01:08;27.70;53.80
40868;DHT22;26586;50.708;22.412;2023-08-01T13:03:35;27.70;54.40
40868;DHT22;26586;50.708;22.412;2023-08-01T13:06:01;27.70;54.70
40868;DHT22;26586;50.708;22.412;2023-08-01T13:08:29;27.70;55.00
40868;DHT22;26586;50.708;22.412;2023-08-01T13:10:55;27.60;54.90
40868;DHT22;26586;50.708;22.412;2023-08-01T13:13:21;27.60;55.20
40868;DHT22;26586;50.708;22.412;2023-08-01T13:15:47;27.60;55.50
40868;DHT22;26586;50.708;22.412;2023-08-01T13:18:14;27.60;55.50
40868;DHT22;26586;50.708;22.412;2023-08-01T13:20:40;27.60;55.50
40868;DHT22;26586;50.708;22.412;2023-08-01T13:23:07;27.60;55.80
40868;DHT22;26586;50.708;22.412;2023-08-01T13:25:34;27.60;55.80
40868;DHT22;26586;50.708;22.412;2023-08-01T13:28:03;27.60;55.80
40868;DHT22;26586;50.708;22.412;2023-08-01T13:30:29;27.60;56.00
40868;DHT22;26586;50.708;22.412;2023-08-01T13:32:55;27.60;56.00
40868;DHT22;26586;50.708;22.412;2023-08-01T13:35:22;27.60;56.10
40868;DHT22;26586;50.708;22.412;2023-08-01T13:37:48;27.60;56.30
40868;DHT22;26586;50.708;22.412;2023-08-01T13:40:14;27.50;56.30
40868;DHT22;26586;50.708;22.412;2023-08-01T13:42:41;27.50;56.40
40868;DHT22;26586;50.708;22.412;2023-08-01T13:45:07;27.50;56.20
40868;DHT22;26586;50.708;22.412;2023-08-01T13:47:34;27.50;56.20
40868;DHT22;26586;50.708;22.412;2023-08-01T13:50:00;27.50;56.10
40868;DHT22;26586;50.708;22.412;2023-08-01T13:52:26;27.50;56.00
40868;DHT22;26586;50.708;22.412;2023-08-01T13:54:53;27.50;56.10
40868;DHT22;26586;50.708;22.412;2023-08-01T13:57:20;27.40;56.00
40868;DHT22;26586;50.708;22.412;2023-08-01T13:59:46;27.40;56.00
40868;DHT22;26586;50.708;22.412;2023-08-01T14:02:13;27.40;56.00
40868;DHT22;26586;50.708;22.412;2023-08-01T14:04:43;27.40;56.10
40868;DHT22;26586;50.708;22.412;2023-08-01T14:07:24;27.40;56.20
40868;DHT22;26586;50.708;22.412;2023-08-01T14:09:56;27.40;56.50
40868;DHT22;26586;50.708;22.412;2023-08-01T14:12:23;27.40;56.10
40868;DHT22;26586;50.708;22.412;2023-08-01T14:14:58;27.30;56.00
40868;DHT22;26586;50.708;22.412;2023-08-01T14:17:25;27.30;56.10
40868;DHT22;26586;50.708;22.412;2023-08-01T14:19:52;27.30;55.80
40868;DHT22;26586;50.708;22.412;2023-08-01T14:22:19;27.30;55.80
40868;DHT22;26586;50.708;22.412;2023-08-01T14:24:45;27.30;55.80
40868;DHT22;26586;50.708;22.412;2023-08-01T14:27:12;27.30;56.00
40868;DHT22;26586;50.708;22.412;2023-08-01T14:29:39;27.30;56.00
40868;DHT22;26586;50.708;22.412;2023-08-01T14:32:07;27.30;55.80
40868;DHT22;26586;50.708;22.412;2023-08-01T14:34:35;27.20;55.80
40868;DHT22;26586;50.708;22.412;2023-08-01T14:37:04;27.20;55.70
40868;DHT22;26586;50.708;22.412;2023-08-01T14:39:31;27.20;55.60
40868;DHT22;26586;50.708;22.412;2023-08-01T14:41:58;27.20;55.60
40868;DHT22;26586;50.708;22.412;2023-08-01T14:44:25;27.20;54.90
40868;DHT22;26586;50.708;22.412;2023-08-01T14:46:52;27.20;55.10
40868;DHT22;26586;50.708;22.412;2023-08-01T14:49:20;27.20;55.00
40868;DHT22;26586;50.708;22.412;2023-08-01T14:51:48;27.20;54.90
40868;DHT22;26586;50.708;22.412;2023-08-01T14:54:16;27.20;54.80
40868;DHT22;26586;50.708;22.412;2023-08-01T14:56:45;27.20;54.70
40868;DHT22;26586;50.708;22.412;2023-08-01T14:59:11;27.20;54.80
40868;DHT22;26586;50.708;22.412;2023-08-01T15:01:37;27.20;54.80
40868;DHT22;26586;50.708;22.412;2023-08-01T15:04:04;27.10;54.90
40868;DHT22;26586;50.708;22.412;2023-08-01T15:06:36;27.10;55.10
40868;DHT22;26586;50.708;22.412;2023-08-01T15:09:02;27.10;55.20
40868;DHT22;26586;50.708;22.412;2023-08-01T15:11:29;27.10;55.20
40868;DHT22;26586;50.708;22.412;2023-08-01T15:14:05;27.10;55.30
40868;DHT22;26586;50.708;22.412;2023-08-01T15:16:31;27.00;55.30
40868;DHT22;26586;50.708;22.412;2023-08-01T15:18:57;27.00;55.40